Time;durP1;ratioP1;P1;durP2;ratioP2;P2;SDS_P1;SDS_P2;PMS_P1;PMS_P2;Temp;Humidity;BMP_temperature;BMP_pressure;BME280_temperature;BME280_humidity;BME280_pressure;Samples;Min_cycle;Max_cycle;Signal;HPM_P1;HPM_P2
2022/11/29 00:00:38;;;;;;;;;;;;;;;6.33;100.00;101330.75;5012875;28;19917;-57
2022/11/29 00:03:04;;;;;;;;;;;;;;;6.31;100.00;101323.88;5012774;28;19922;-57
2022/11/29 00:05:29;;;;;;;;;;;;;;;6.30;100.00;101324.97;5031280;28;20295;-59
2022/11/29 00:07:54;;;;;;;;;;;;;;;6.28;100.00;101325.25;5032218;28;19991;-59
2022/11/29 00:10:19;;;;;;;;;;;;;;;6.27;100.00;101331.81;5032008;28;19913;-58
2022/11/29 00:12:47;;;;;;;;;;;;;;;6.24;100.00;101324.94;5032018;28;19940;-58
2022/11/29 00:15:13;;;;;;;;;;;;;;;6.23;100.00;101328.78;5032158;28;19924;-57
2022/11/29 00:17:39;;;;;;;;;;;;;;;6.22;100.00;101326.31;5027904;28;20016;-58
2022/11/29 00:20:04;;;;;;;;;;;;;;;6.22;100.00;101346.34;5031875;28;19925;-58
2022/11/29 00:22:29;;;;;;;;;;;;;;;6.21;100.00;101333.72;5031994;28;19913;-58
2022/11/29 00:24:55;;;;;;;;;;;;;;;6.22;100.00;101342.78;5032210;28;19928;-58
2022/11/29 00:27:20;;;;;;;;;;;;;;;6.23;100.00;101338.97;5014201;28;19917;-57
2022/11/29 00:29:45;;;;;;;;;;;;;;;6.18;100.00;101333.41;5032482;28;20300;-57
2022/11/29 00:32:10;;;;;;;;;;;;;;;6.20;100.00;101343.03;5032111;28;19917;-58
2022/11/29 00:34:35;;;;;;;;;;;;;;;6.20;100.00;101343.03;5031919;28;19940;-57
2022/11/29 00:37:01;;;;;;;;;;;;;;;6.20;100.00;101343.03;5031795;28;19979;-57
2022/11/29 00:39:26;;;;;;;;;;;;;;;6.20;100.00;101348.53;5031802;28;19923;-57
2022/11/29 00:41:51;;;;;;;;;;;;;;;6.20;100.00;101342.22;5032051;28;20285;-57
2022/11/29 00:44:16;;;;;;;;;;;;;;;6.19;100.00;101346.06;5032103;28;20285;-58
2022/11/29 00:46:41;;;;;;;;;;;;;;;6.17;100.00;101350.97;5031763;28;20328;-56
2022/11/29 00:49:07;;;;;;;;;;;;;;;6.17;100.00;101349.09;5031738;28;19975;-57
2022/11/29 00:51:32;;;;;;;;;;;;;;;6.15;100.00;101350.41;5031555;28;20004;-58
2022/11/29 00:53:57;;;;;;;;;;;;;;;6.15;100.00;101350.41;5031608;28;19936;-58
2022/11/29 00:56:23;;;;;;;;;;;;;;;6.14;100.00;101346.84;5031675;28;19913;-57
2022/11/29 00:58:48;;;;;;;;;;;;;;;6.13;100.00;101356.19;5031598;28;20415;-57
2022/11/29 01:01:13;;;;;;;;;;;;;;;6.14;100.00;101349.59;5013624;28;19999;-57
2022/11/29 01:03:39;;;;;;;;;;;;;;;6.15;100.00;101353.16;5031503;28;20346;-57
2022/11/29 01:06:08;;;;;;;;;;;;;;;6.16;100.00;101347.41;5031236;28;19974;-58
2022/11/29 01:08:34;;;;;;;;;;;;;;;6.16;100.00;101355.66;5031560;28;19917;-59
2022/11/29 01:11:03;;;;;;;;;;;;;;;6.14;100.00;101357.84;5028502;28;19913;-62
2022/11/29 01:13:29;;;;;;;;;;;;;;;6.12;100.00;101346.28;5030888;28;19946;-59
2022/11/29 01:15:55;;;;;;;;;;;;;;;6.10;100.00;101348.47;5031301;28;19913;-58
2022/11/29 01:18:20;;;;;;;;;;;;;;;6.08;100.00;101350.66;5031205;28;19940;-59
2022/11/29 01:20:45;;;;;;;;;;;;;;;6.05;100.00;101352.00;5031062;28;19920;-60
2022/11/29 01:23:10;;;;;;;;;;;;;;;6.01;100.00;101348.13;5031094;28;19966;-58
2022/11/29 01:25:35;;;;;;;;;;;;;;;5.99;100.00;101341.22;5031046;28;19913;-58
2022/11/29 01:28:01;;;;;;;;;;;;;;;5.98;100.00;101354.13;5013162;28;20282;-57
2022/11/29 01:30:26;;;;;;;;;;;;;;;5.97;100.00;101348.91;5030825;28;19913;-57
2022/11/29 01:32:51;;;;;;;;;;;;;;;5.93;100.00;101354.09;5031234;28;19913;-58
2022/11/29 01:35:16;;;;;;;;;;;;;;;5.90;100.00;101362.84;5031310;28;20283;-58
2022/11/29 01:37:41;;;;;;;;;;;;;;;5.88;100.00;101360.38;5031181;28;20004;-59
2022/11/29 01:40:07;;;;;;;;;;;;;;;5.89;100.00;101362.03;5031184;28;19920;-59
2022/11/29 01:42:32;;;;;;;;;;;;;;;5.89;100.00;101361.19;5031254;28;19913;-58
2022/11/29 01:45:03;;;;;;;;;;;;;;;5.88;100.00;101360.38;5031135;28;20747;-58
2022/11/29 01:47:29;;;;;;;;;;;;;;;5.88;100.00;101356.78;5031138;28;19917;-58
2022/11/29 01:49:54;;;;;;;;;;;;;;;5.90;100.00;101363.66;5031258;28;19960;-58
2022/11/29 01:52:21;;;;;;;;;;;;;;;5.91;100.00;101361.75;5031084;28;19952;-58
2022/11/29 01:54:51;;;;;;;;;;;;;;;5.92;100.00;101372.47;5031056;28;19959;-57
2022/11/29 01:57:17;;;;;;;;;;;;;;;5.92;100.00;101369.72;5031124;28;19913;-57
2022/11/29 01:59:47;;;;;;;;;;;;;;;5.91;100.00;101370.81;5031010;28;20349;-56
2022/11/29 02:02:14;;;;;;;;;;;;;;;5.91;100.00;101375.47;5030219;28;19913;-57
2022/11/29 02:04:40;;;;;;;;;;;;;;;5.88;100.00;101376.84;5030465;28;19913;-58
2022/11/29 02:07:06;;;;;;;;;;;;;;;5.86;100.00;101376.25;5023602;28;20234;-58
2022/11/29 02:09:32;;;;;;;;;;;;;;;5.83;100.00;101378.72;5030568;28;19996;-58
2022/11/29 02:12:00;;;;;;;;;;;;;;;5.83;100.00;101381.47;5030255;28;20353;-56
2022/11/29 02:14:34;;;;;;;;;;;;;;;5.85;100.00;101385.59;5029770;28;20480;-58
2022/11/29 02:17:06;;;;;;;;;;;;;;;5.86;100.00;101380.91;5029819;28;20374;-56
2022/11/29 02:19:52;;;;;;;;;;;;;;;5.85;100.00;101388.34;5030110;28;20003;-57
2022/11/29 02:22:22;;;;;;;;;;;;;;;5.85;100.00;101379.28;5029864;28;19936;-57
2022/11/29 02:24:51;;;;;;;;;;;;;;;5.83;100.00;101384.19;5030282;28;19917;-58
2022/11/29 02:27:26;;;;;;;;;;;;;;;5.81;100.00;101386.38;5030338;28;19921;-57
2022/11/29 02:30:05;;;;;;;;;;;;;;;5.81;100.00;101389.13;5030260;28;20039;-57
2022/11/29 02:32:48;;;;;;;;;;;;;;;5.80;100.00;101388.31;5029988;28;20287;-57
2022/11/29 02:35:23;;;;;;;;;;;;;;;5.80;100.00;101390.19;5030355;28;19917;-57
2022/11/29 02:38:05;;;;;;;;;;;;;;;5.81;100.00;101389.94;5030159;28;20017;-57
2022/11/29 02:40:48;;;;;;;;;;;;;;;5.82;100.00;101390.78;5030304;28;19917;-56
2022/11/29 02:43:28;;;;;;;;;;;;;;;5.80;100.00;101398.44;5032895;28;19936;-58
2022/11/29 02:45:53;;;;;;;;;;;;;;;5.79;100.00;101394.88;5033864;28;19927;-57
2022/11/29 02:48:36;;;;;;;;;;;;;;;5.77;100.00;101397.88;5033525;28;20436;-57
2022/11/29 02:51:07;;;;;;;;;;;;;;;5.78;100.00;101406.94;5033707;28;19924;-58
2022/11/29 02:53:32;;;;;;;;;;;;;;;5.80;100.00;101401.19;5033568;28;19948;-59
2022/11/29 02:56:00;;;;;;;;;;;;;;;5.82;100.00;101401.75;5033188;28;20426;-58
2022/11/29 02:58:31;;;;;;;;;;;;;;;5.84;100.00;101408.66;5033253;28;19916;-60
2022/11/29 03:01:16;;;;;;;;;;;;;;;5.86;100.00;101413.88;5033482;28;19936;-58
2022/11/29 03:04:02;;;;;;;;;;;;;;;5.88;100.00;101418.03;5025361;28;20380;-57
2022/11/29 03:06:37;;;;;;;;;;;;;;;5.88;100.00;101414.44;5033515;28;19920;-59
2022/11/29 03:09:20;;;;;;;;;;;;;;;5.88;100.00;101415.28;5015440;28;20270;-58
2022/11/29 03:12:04;;;;;;;;;;;;;;;5.89;100.00;101425.19;5032283;28;19917;-57
2022/11/29 03:14:40;;;;;;;;;;;;;;;5.91;100.00;101422.16;5014049;28;19939;-57
2022/11/29 03:17:20;;;;;;;;;;;;;;;5.92;100.00;101421.09;5032398;28;19920;-57
2022/11/29 03:19:54;;;;;;;;;;;;;;;5.92;100.00;101416.41;5012680;28;19956;-57
2022/11/29 03:22:28;;;;;;;;;;;;;;;5.92;100.00;101419.16;5012649;28;20043;-57
2022/11/29 03:25:00;;;;;;;;;;;;;;;5.95;100.00;101426.06;5012570;28;19913;-58
2022/11/29 03:27:38;;;;;;;;;;;;;;;5.95;100.00;101428.81;5012694;28;19921;-57
2022/11/29 03:30:05;;;;;;;;;;;;;;;5.96;100.00;101438.69;5012319;28;20361;-57
2022/11/29 03:32:39;;;;;;;;;;;;;;;5.96;100.00;101430.44;5012410;28;19929;-58
2022/11/29 03:35:17;;;;;;;;;;;;;;;5.95;100.00;101439.78;5013180;28;19968;-57
2022/11/29 03:37:54;;;;;;;;;;;;;;;5.94;100.00;101438.13;5012794;28;19921;-57
2022/11/29 03:40:23;;;;;;;;;;;;;;;5.92;100.00;101438.38;5012980;28;19914;-57
2022/11/29 03:43:00;;;;;;;;;;;;;;;5.92;100.00;101445.81;5012832;28;19961;-58
2022/11/29 03:48:02;;;;;;;;;;;;;;;5.93;100.00;101450.22;5002228;23;19925;-58
2022/11/29 03:50:32;;;;;;;;;;;;;;;5.93;100.00;101456.50;5013908;28;19940;-57
2022/11/29 03:53:13;;;;;;;;;;;;;;;5.95;100.00;101461.78;5011374;28;19914;-58
2022/11/29 03:55:57;;;;;;;;;;;;;;;5.97;100.00;101458.75;5014902;28;19917;-57
2022/11/29 03:58:31;;;;;;;;;;;;;;;5.98;100.00;101457.66;5008820;28;19924;-58
2022/11/29 04:01:15;;;;;;;;;;;;;;;5.98;100.00;101463.97;5012456;28;20016;-58
2022/11/29 04:04:16;;;;;;;;;;;;;;;5.98;100.00;101468.66;5023550;28;20271;-59
2022/11/29 04:07:10;;;;;;;;;;;;;;;5.99;100.00;101478.56;5010772;28;19950;-59
2022/11/29 04:09:47;;;;;;;;;;;;;;;6.01;100.00;101473.63;4961468;28;20013;-57
2022/11/29 04:12:15;;;;;;;;;;;;;;;6.01;100.00;101479.97;5033018;28;19923;-58
2022/11/29 04:14:49;;;;;;;;;;;;;;;6.02;100.00;101473.41;5032966;28;19913;-57
2022/11/29 04:17:33;;;;;;;;;;;;;;;6.02;100.00;101475.28;5032916;28;19917;-57
2022/11/29 04:19:58;;;;;;;;;;;;;;;6.02;100.00;101467.06;5031830;28;20370;-58
2022/11/29 04:22:30;;;;;;;;;;;;;;;5.98;100.00;101474.97;5013239;28;19918;-58
2022/11/29 04:24:58;;;;;;;;;;;;;;;5.94;100.00;101482.06;5013194;28;20245;-59
2022/11/29 04:27:41;;;;;;;;;;;;;;;5.91;100.00;101482.59;5013193;28;19940;-59
2022/11/29 04:30:09;;;;;;;;;;;;;;;5.91;100.00;101488.06;5013218;28;19913;-58
2022/11/29 04:32:43;;;;;;;;;;;;;;;5.93;100.00;101492.22;5013186;28;20364;-57
2022/11/29 04:35:27;;;;;;;;;;;;;;;5.95;100.00;101489.22;5013004;28;19913;-57
2022/11/29 04:38:11;;;;;;;;;;;;;;;5.95;100.00;101494.72;5012875;28;19924;-58
2022/11/29 04:40:49;;;;;;;;;;;;;;;5.94;100.00;101499.38;5013045;28;19913;-58
2022/11/29 04:43:15;;;;;;;;;;;;;;;5.96;100.00;101501.03;5012829;28;19944;-58
2022/11/29 04:45:48;;;;;;;;;;;;;;;5.97;100.00;101498.03;5012778;28;20364;-57
2022/11/29 04:48:38;;;;;;;;;;;;;;;5.98;100.00;101505.16;4993235;28;20016;-57
2022/11/29 04:51:16;;;;;;;;;;;;;;;6.00;100.00;101505.78;4993184;28;19920;-57
2022/11/29 04:53:47;;;;;;;;;;;;;;;6.03;100.00;101510.75;4989942;28;19913;-58
2022/11/29 04:56:19;;;;;;;;;;;;;;;6.04;100.00;101509.69;5010713;28;19913;-57
2022/11/29 04:58:50;;;;;;;;;;;;;;;6.02;100.00;101513.75;5012788;28;19975;-58
2022/11/29 05:01:21;;;;;;;;;;;;;;;6.00;100.00;101507.72;5012701;28;19913;-58
2022/11/29 05:03:55;;;;;;;;;;;;;;;5.98;100.00;101505.16;5012390;28;20336;-57
2022/11/29 05:06:33;;;;;;;;;;;;;;;5.99;100.00;101514.25;5012277;28;20349;-57
2022/11/29 05:08:58;;;;;;;;;;;;;;;5.99;100.00;101511.50;5012641;28;20031;-58
2022/11/29 05:11:31;;;;;;;;;;;;;;;5.98;100.00;101518.09;5012471;28;19977;-58
2022/11/29 05:14:15;;;;;;;;;;;;;;;5.97;100.00;101520.00;5012571;28;19967;-59
2022/11/29 05:16:46;;;;;;;;;;;;;;;5.96;100.00;101531.25;5012487;28;20015;-58
2022/11/29 05:19:24;;;;;;;;;;;;;;;5.97;100.00;101533.72;5012534;28;20040;-58
2022/11/29 05:21:58;;;;;;;;;;;;;;;5.97;100.00;101539.22;5012310;28;20339;-58
2022/11/29 05:24:26;;;;;;;;;;;;;;;5.97;100.00;101536.47;5012325;28;19914;-58
2022/11/29 05:26:57;;;;;;;;;;;;;;;5.97;100.00;101544.72;5011758;28;19921;-58
2022/11/29 05:29:29;;;;;;;;;;;;;;;5.97;100.00;101546.63;5012220;28;19925;-59
2022/11/29 05:31:54;;;;;;;;;;;;;;;5.98;100.00;101543.63;5012184;28;19913;-58
2022/11/29 05:34:38;;;;;;;;;;;;;;;5.97;100.00;101547.44;5012140;28;20032;-58
2022/11/29 05:37:21;;;;;;;;;;;;;;;5.96;100.00;101554.03;5012037;28;19979;-57
2022/11/29 05:40:00;;;;;;;;;;;;;;;5.95;100.00;101557.91;5011135;28;19960;-57
2022/11/29 05:42:49;;;;;;;;;;;;;;;5.94;100.00;101558.97;5012104;28;20313;-59
2022/11/29 05:45:23;;;;;;;;;;;;;;;5.94;100.00;101558.97;5012140;28;19971;-57
2022/11/29 05:47:51;;;;;;;;;;;;;;;5.93;100.00;101568.31;5011640;28;19928;-58
2022/11/29 05:50:21;;;;;;;;;;;;;;;5.91;100.00;101574.03;5004679;28;19925;-59
2022/11/29 05:52:52;;;;;;;;;;;;;;;5.91;100.00;101564.97;5011772;28;19917;-58
2022/11/29 05:55:28;;;;;;;;;;;;;;;5.92;100.00;101566.63;5011792;28;19920;-58
2022/11/29 05:57:56;;;;;;;;;;;;;;;5.90;100.00;101577.03;5011808;28;20015;-59
2022/11/29 06:00:21;;;;;;;;;;;;;;;5.87;100.00;101580.28;5011703;28;20024;-58
2022/11/29 06:02:56;;;;;;;;;;;;;;;5.86;100.00;101578.63;5011447;28;19917;-58
2022/11/29 06:05:40;;;;;;;;;;;;;;;5.83;100.00;101584.66;5010942;28;19913;-57
2022/11/29 06:08:15;;;;;;;;;;;;;;;5.82;100.00;101585.75;5010323;28;19928;-58
2022/11/29 06:10:43;;;;;;;;;;;;;;;5.86;100.00;101587.72;5010305;28;19971;-58
2022/11/29 06:13:13;;;;;;;;;;;;;;;5.89;100.00;101592.69;5010201;28;20008;-58
2022/11/29 06:15:55;;;;;;;;;;;;;;;5.88;100.00;101593.78;5010796;28;19921;-59
2022/11/29 06:18:23;;;;;;;;;;;;;;;5.88;100.00;101596.53;5013643;28;19940;-58
2022/11/29 06:20:59;;;;;;;;;;;;;;;5.89;100.00;101598.19;5014298;28;20331;-58
2022/11/29 06:23:36;;;;;;;;;;;;;;;5.89;100.00;101600.94;5013729;28;20099;-58
2022/11/29 06:26:28;;;;;;;;;;;;;;;5.90;100.00;101608.06;5013824;28;19961;-58
2022/11/29 06:29:00;;;;;;;;;;;;;;;5.91;100.00;101604.25;5013410;28;19936;-58
2022/11/29 06:31:33;;;;;;;;;;;;;;;5.90;100.00;101615.50;5013632;28;20079;-58
2022/11/29 06:34:03;;;;;;;;;;;;;;;5.90;100.00;101618.22;5013141;28;19928;-58
2022/11/29 06:36:35;;;;;;;;;;;;;;;5.89;100.00;101619.31;5013009;28;19964;-57
2022/11/29 06:39:00;;;;;;;;;;;;;;;5.89;100.00;101627.56;5013407;28;19924;-58
2022/11/29 06:41:25;;;;;;;;;;;;;;;5.88;100.00;101629.47;5013283;28;20022;-58
2022/11/29 06:43:51;;;;;;;;;;;;;;;5.87;100.00;101636.06;5013523;28;19920;-58
2022/11/29 06:46:33;;;;;;;;;;;;;;;5.86;100.00;101634.41;5005191;28;20359;-58
2022/11/29 06:49:07;;;;;;;;;;;;;;;5.85;100.00;101637.41;5013268;28;20299;-58
2022/11/29 06:51:58;;;;;;;;;;;;;;;5.86;100.00;101650.03;5012802;28;19924;-60
2022/11/29 06:54:30;;;;;;;;;;;;;;;5.84;100.00;101647.53;5012922;28;19920;-58
2022/11/29 06:57:01;;;;;;;;;;;;;;;5.83;100.00;101653.31;5013161;28;19957;-58
2022/11/29 06:59:29;;;;;;;;;;;;;;;5.80;100.00;101657.38;5012785;28;19964;-58
2022/11/29 07:01:59;;;;;;;;;;;;;;;5.76;100.00;101658.97;5012437;28;19918;-58
2022/11/29 07:04:45;;;;;;;;;;;;;;;5.74;100.00;101659.22;5012332;28;19914;-58
2022/11/29 07:07:12;;;;;;;;;;;;;;;5.73;100.00;101665.81;5012467;28;20024;-58
2022/11/29 07:09:38;;;;;;;;;;;;;;;5.70;100.00;101671.78;5012529;28;19949;-58
2022/11/29 07:12:03;;;;;;;;;;;;;;;5.70;100.00;101666.31;5012377;28;19956;-58
2022/11/29 07:14:29;;;;;;;;;;;;;;;5.70;100.00;101669.03;5012179;28;20000;-58
2022/11/29 07:17:03;;;;;;;;;;;;;;;5.71;100.00;101664.41;5012461;28;20007;-57
2022/11/29 07:19:28;;;;;;;;;;;;;;;5.72;100.00;101677.88;5012292;28;19920;-57
2022/11/29 07:22:07;;;;;;;;;;;;;;;5.73;100.00;101682.28;5012492;28;20339;-58
2022/11/29 07:24:52;;;;;;;;;;;;;;;5.73;100.00;101676.78;5011313;28;19917;-59
2022/11/29 07:27:19;;;;;;;;;;;;;;;5.72;100.00;101680.63;5011596;28;20390;-57
2022/11/29 07:29:50;;;;;;;;;;;;;;;5.72;100.00;101679.75;5012549;28;19913;-58
2022/11/29 07:32:18;;;;;;;;;;;;;;;5.72;100.00;101688.00;5012315;28;20351;-58
2022/11/29 07:34:43;;;;;;;;;;;;;;;5.73;100.00;101690.53;5013371;28;20012;-58
2022/11/29 07:37:11;;;;;;;;;;;;;;;5.72;100.00;101694.34;5014119;28;20009;-58
2022/11/29 07:39:47;;;;;;;;;;;;;;;5.72;100.00;101691.59;5014139;28;19924;-58
2022/11/29 07:42:12;;;;;;;;;;;;;;;5.74;100.00;101691.34;5010169;28;19913;-57
2022/11/29 07:44:47;;;;;;;;;;;;;;;5.74;100.00;101700.41;5010139;28;19944;-58
2022/11/29 07:47:12;;;;;;;;;;;;;;;5.75;100.00;101695.75;5011784;28;20285;-58
2022/11/29 07:49:37;;;;;;;;;;;;;;;5.76;100.00;101700.97;5014026;28;20045;-57
2022/11/29 07:52:03;;;;;;;;;;;;;;;5.79;100.00;101707.91;5013878;28;20019;-58
2022/11/29 07:54:28;;;;;;;;;;;;;;;5.79;100.00;101699.66;5013940;28;20009;-58
2022/11/29 07:56:54;;;;;;;;;;;;;;;5.77;100.00;101701.81;5013950;28;19919;-57
2022/11/29 07:59:19;;;;;;;;;;;;;;;5.75;100.00;101703.97;5014026;28;19918;-59
2022/11/29 08:01:44;;;;;;;;;;;;;;;5.73;100.00;101708.88;5014052;28;20008;-57
2022/11/29 08:04:10;;;;;;;;;;;;;;;5.74;100.00;101716.91;5013840;28;20364;-58
2022/11/29 08:06:35;;;;;;;;;;;;;;;5.74;100.00;101714.16;5013388;28;19960;-59
2022/11/29 08:09:00;;;;;;;;;;;;;;;5.77;100.00;101707.31;5011957;28;19921;-59
2022/11/29 08:11:26;;;;;;;;;;;;;;;5.74;100.00;101705.06;5025812;28;19914;-59
2022/11/29 08:13:58;;;;;;;;;;;;;;;5.70;100.00;101704.75;5009788;28;19920;-59
2022/11/29 08:16:23;;;;;;;;;;;;;;;5.77;100.00;101707.31;5009409;28;19917;-60
2022/11/29 08:18:48;;;;;;;;;;;;;;;5.80;100.00;101706.81;5009903;28;20411;-59
2022/11/29 08:21:17;;;;;;;;;;;;;;;5.87;100.00;101712.09;5009912;28;19914;-55
2022/11/29 08:23:45;;;;;;;;;;;;;;;5.90;100.00;101706.13;5012781;28;19914;-58
2022/11/29 08:26:10;;;;;;;;;;;;;;;5.94;100.00;101710.03;5013364;28;19919;-58
2022/11/29 08:28:36;;;;;;;;;;;;;;;5.99;100.00;101704.63;5001373;28;19918;-59
2022/11/29 08:31:01;;;;;;;;;;;;;;;6.04;100.00;101717.59;4990900;28;19924;-59
2022/11/29 08:33:27;;;;;;;;;;;;;;;6.07;100.00;101709.69;4990722;28;20008;-57
2022/11/29 08:35:52;;;;;;;;;;;;;;;6.09;100.00;101710.25;4991368;28;19923;-58
2022/11/29 08:38:17;;;;;;;;;;;;;;;6.13;100.00;101727.06;4991489;28;20354;-58
2022/11/29 08:40:42;;;;;;;;;;;;;;;6.13;100.00;101729.00;4990912;28;19914;-57
2022/11/29 08:43:08;;;;;;;;;;;;;;;6.15;100.00;101729.53;4991378;28;19960;-59
2022/11/29 08:45:33;;;;;;;;;;;;;;;6.17;100.00;101735.63;4991318;28;20365;-59
2022/11/29 08:47:58;;;;;;;;;;;;;;;6.21;100.00;101742.28;4990941;28;19988;-59
2022/11/29 08:50:24;;;;;;;;;;;;;;;6.22;100.00;101742.03;4991122;28;20234;-59
2022/11/29 08:55:50;;;;;;;;;;;;;;;6.30;100.00;101743.50;4949915;29;19967;-59
2022/11/29 08:58:15;;;;;;;;;;;;;;;6.34;100.00;101750.13;4982117;28;19921;-59
2022/11/29 09:00:42;;;;;;;;;;;;;;;6.36;100.00;101753.47;4990992;28;20339;-57
2022/11/29 09:05:51;;;;;;;;;;;;;;;6.47;100.00;101756.34;4991114;28;19924;-58
2022/11/29 09:08:17;;;;;;;;;;;;;;;6.50;100.00;101758.59;4990687;28;19917;-58
2022/11/29 09:10:43;;;;;;;;;;;;;;;6.51;100.00;101761.06;4990849;28;19926;-58
2022/11/29 09:13:08;;;;;;;;;;;;;;;6.56;100.00;101768.56;4990468;28;19924;-58
2022/11/29 09:15:35;;;;;;;;;;;;;;;6.61;100.00;101759.53;4990576;28;19941;-57
2022/11/29 09:18:00;;;;;;;;;;;;;;;6.63;100.00;101766.44;4990588;28;19957;-58
2022/11/29 09:20:25;;;;;;;;;;;;;;;6.65;100.00;101777.19;4990481;28;20269;-58
2022/11/29 09:22:50;;;;;;;;;;;;;;;6.63;100.00;101771.94;4990460;28;19913;-59
2022/11/29 09:25:16;;;;;;;;;;;;;;;6.62;100.00;101781.25;4990344;28;19913;-58
2022/11/29 09:27:41;;;;;;;;;;;;;;;6.66;100.00;101776.09;4990492;28;19921;-59
2022/11/29 09:30:07;;;;;;;;;;;;;;;6.74;100.00;101780.31;4990431;28;20270;-58
2022/11/29 09:32:33;;;;;;;;;;;;;;;6.79;100.00;101783.13;4990307;28;19914;-59
2022/11/29 09:34:58;;;;;;;;;;;;;;;6.82;100.00;101785.34;4990718;28;19918;-59
2022/11/29 09:37:23;;;;;;;;;;;;;;;6.79;100.00;101789.44;4990036;28;20361;-59
2022/11/29 09:39:48;;;;;;;;;;;;;;;6.72;100.00;101788.81;4990281;28;19957;-59
2022/11/29 09:42:30;;;;;;;;;;;;;;;6.67;100.00;101794.25;4990412;28;19925;-58
2022/11/29 09:45:02;;;;;;;;;;;;;;;6.51;100.00;101796.81;5005272;28;19925;-57
2022/11/29 09:47:27;;;;;;;;;;;;;;;6.44;100.00;101804.41;4990026;28;19917;-58
2022/11/29 09:50:01;;;;;;;;;;;;;;;6.45;100.00;101806.09;4990361;28;19976;-59
2022/11/29 09:52:45;;;;;;;;;;;;;;;6.47;100.00;101803.06;4993759;28;20036;-59
2022/11/29 09:55:31;;;;;;;;;;;;;;;6.43;100.00;101807.41;4992593;28;20316;-58
2022/11/29 09:57:58;;;;;;;;;;;;;;;6.41;100.00;101802.16;4994084;28;19924;-58
2022/11/29 10:00:24;;;;;;;;;;;;;;;6.41;100.00;101807.66;4993905;28;19925;-59
2022/11/29 10:02:56;;;;;;;;;;;;;;;6.55;100.00;101808.97;4992288;28;20288;-59
2022/11/29 10:05:27;;;;;;;;;;;;;;;6.56;100.00;101812.53;4993986;28;20396;-58
2022/11/29 10:07:55;;;;;;;;;;;;;;;6.50;100.00;101813.56;4993735;28;19914;-58
2022/11/29 10:10:24;;;;;;;;;;;;;;;6.48;100.00;101810.25;4993658;28;19933;-58
2022/11/29 10:13:03;;;;;;;;;;;;;;;6.48;100.00;101813.00;4993943;28;19946;-57
2022/11/29 10:15:30;;;;;;;;;;;;;;;6.47;100.00;101809.38;4993869;28;20373;-58
2022/11/29 10:18:11;;;;;;;;;;;;;;;6.47;100.00;101812.13;4993724;28;19921;-58
2022/11/29 10:20:38;;;;;;;;;;;;;;;6.51;100.00;101810.56;4993625;28;20382;-59
2022/11/29 10:23:12;;;;;;;;;;;;;;;6.55;100.00;101810.88;4993771;28;19924;-59
2022/11/29 10:25:45;;;;;;;;;;;;;;;6.58;100.00;101810.38;4993888;28;19929;-59
2022/11/29 10:28:15;;;;;;;;;;;;;;;6.60;100.00;101802.72;4993559;28;19997;-59
2022/11/29 10:30:41;;;;;;;;;;;;;;;6.59;100.00;101806.53;4993660;28;20340;-60
2022/11/29 10:33:14;;;;;;;;;;;;;;;6.58;100.00;101807.63;4993940;28;19917;-60
2022/11/29 10:35:40;;;;;;;;;;;;;;;6.59;100.00;101806.53;4993590;28;19918;-59
2022/11/29 10:38:05;;;;;;;;;;;;;;;6.58;100.00;101804.88;4998618;28;19918;-60
2022/11/29 10:40:33;;;;;;;;;;;;;;;6.57;100.00;101808.72;5003010;28;19922;-58
2022/11/29 10:42:59;;;;;;;;;;;;;;;6.55;100.00;101799.88;5001588;28;19920;-58
2022/11/29 10:45:26;;;;;;;;;;;;;;;6.61;100.00;101790.63;5003277;28;20334;-58
2022/11/29 10:47:57;;;;;;;;;;;;;;;6.70;100.00;101796.50;5003696;28;19936;-59
2022/11/29 10:50:24;;;;;;;;;;;;;;;6.77;100.00;101791.63;5003434;28;19928;-58
2022/11/29 10:52:50;;;;;;;;;;;;;;;6.83;100.00;101793.34;5004745;28;19917;-58
2022/11/29 10:55:15;;;;;;;;;;;;;;;6.78;100.00;101806.22;5002369;28;20000;-58
2022/11/29 10:57:59;;;;;;;;;;;;;;;6.76;100.00;101809.19;5003423;28;19933;-58
2022/11/29 11:00:25;;;;;;;;;;;;;;;6.76;100.00;101814.69;5003857;28;19932;-59
2022/11/29 11:02:50;;;;;;;;;;;;;;;6.72;100.00;101811.63;5009374;28;19917;-59
2022/11/29 11:05:24;;;;;;;;;;;;;;;6.68;100.00;101809.66;5012441;28;20304;-59
2022/11/29 11:07:56;;;;;;;;;;;;;;;6.65;100.00;101818.44;5012659;28;20348;-59
2022/11/29 11:10:28;;;;;;;;;;;;;;;6.58;100.00;101815.03;5012462;28;19918;-58
2022/11/29 11:13:04;;;;;;;;;;;;;;;6.61;100.00;101828.28;5012322;28;19913;-59
2022/11/29 11:15:30;;;;;;;;;;;;;;;6.61;100.00;101825.53;5012146;28;19917;-59
2022/11/29 11:17:57;;;;;;;;;;;;;;;6.61;100.00;101812.63;5012215;28;19921;-58
2022/11/29 11:20:23;;;;;;;;;;;;;;;6.66;100.00;101812.66;5012115;28;19913;-58
2022/11/29 11:23:20;;;;;;;;;;;;;;;6.70;100.00;101822.09;5012299;28;19932;-59
2022/11/29 11:25:48;;;;;;;;;;;;;;;6.79;100.00;101819.69;5012318;28;19924;-58
2022/11/29 11:28:21;;;;;;;;;;;;;;;6.84;100.00;101814.28;5012310;28;19921;-58
2022/11/29 11:31:00;;;;;;;;;;;;;;;6.84;100.00;101816.19;5009785;28;19968;-59
2022/11/29 11:33:27;;;;;;;;;;;;;;;6.82;100.00;101819.19;5000942;28;20017;-59
2022/11/29 11:36:00;;;;;;;;;;;;;;;6.81;100.00;101822.19;4992388;28;19985;-59
2022/11/29 11:38:26;;;;;;;;;;;;;;;6.81;100.00;101822.19;4992368;28;19950;-59
2022/11/29 11:41:10;;;;;;;;;;;;;;;6.76;100.00;101822.94;4995006;28;19961;-59
2022/11/29 11:43:36;;;;;;;;;;;;;;;6.71;100.00;101826.47;5027188;28;19913;-59
2022/11/29 11:46:01;;;;;;;;;;;;;;;6.74;100.00;101827.06;5011318;28;19933;-58
2022/11/29 11:48:27;;;;;;;;;;;;;;;6.74;100.00;101830.66;5005983;28;19917;-58
2022/11/29 11:50:55;;;;;;;;;;;;;;;6.69;100.00;101833.31;4992124;28;20492;-58
2022/11/29 11:53:35;;;;;;;;;;;;;;;6.72;100.00;101854.81;4992341;28;20009;-59
2022/11/29 11:56:08;;;;;;;;;;;;;;;6.67;100.00;101846.50;4992130;28;19922;-61
2022/11/29 11:58:44;;;;;;;;;;;;;;;6.58;100.00;101843.38;4991896;28;20004;-58
2022/11/29 12:01:09;;;;;;;;;;;;;;;6.59;100.00;101842.28;4992014;28;19973;-58
2022/11/29 12:03:38;;;;;;;;;;;;;;;6.61;100.00;101848.38;4990122;28;20391;-59
2022/11/29 12:06:22;;;;;;;;;;;;;;;6.63;100.00;101843.41;4991884;28;19917;-58
2022/11/29 12:08:48;;;;;;;;;;;;;;;6.68;100.00;101845.41;4991535;28;20041;-58
2022/11/29 12:11:14;;;;;;;;;;;;;;;6.67;100.00;101854.75;4991836;28;20306;-59
2022/11/29 12:13:42;;;;;;;;;;;;;;;6.67;100.00;101847.34;4991489;28;20011;-58
2022/11/29 12:16:12;;;;;;;;;;;;;;;6.69;100.00;101850.66;4991698;28;19913;-58
2022/11/29 12:18:40;;;;;;;;;;;;;;;6.74;100.00;101855.41;4991931;28;19913;-59
2022/11/29 12:21:16;;;;;;;;;;;;;;;6.75;100.00;101858.97;4991887;28;20301;-58
2022/11/29 12:23:51;;;;;;;;;;;;;;;6.78;100.00;101867.53;4994821;28;19947;-59
2022/11/29 12:26:19;;;;;;;;;;;;;;;6.83;100.00;101861.28;5011295;28;19921;-59
2022/11/29 12:28:45;;;;;;;;;;;;;;;6.84;100.00;101862.94;5010302;28;20011;-58
2022/11/29 12:31:22;;;;;;;;;;;;;;;6.83;100.00;101867.63;4991485;28;20397;-58
2022/11/29 12:33:51;;;;;;;;;;;;;;;6.93;100.00;101869.66;4991541;28;20016;-58
2022/11/29 12:36:27;;;;;;;;;;;;;;;6.94;100.00;101879.56;4991388;28;19964;-58
2022/11/29 12:39:15;;;;;;;;;;;;;;;6.82;100.00;101874.22;4991576;28;19921;-58
2022/11/29 12:41:48;;;;;;;;;;;;;;;6.77;100.00;101890.63;4972474;28;19940;-59
2022/11/29 12:44:23;;;;;;;;;;;;;;;6.78;100.00;101891.47;4991498;28;19918;-59
2022/11/29 12:46:56;;;;;;;;;;;;;;;6.81;100.00;101891.78;4991451;28;19917;-59
2022/11/29 12:49:21;;;;;;;;;;;;;;;6.80;100.00;101881.88;4999671;28;20277;-59
2022/11/29 12:51:55;;;;;;;;;;;;;;;6.83;100.00;101886.88;4991216;28;19933;-58
2022/11/29 12:54:20;;;;;;;;;;;;;;;6.85;100.00;101887.44;4991187;28;20019;-58
2022/11/29 12:57:06;;;;;;;;;;;;;;;6.90;100.00;101897.66;4990877;28;20008;-59
2022/11/29 12:59:38;;;;;;;;;;;;;;;6.94;100.00;101895.25;4991028;28;20376;-58
2022/11/29 13:02:18;;;;;;;;;;;;;;;6.93;100.00;101899.09;4989138;28;19923;-59